createdAt,value
2019-05-10T00:00:15.920Z,99.90
2019-05-10T00:03:03.195Z,99.90
2019-05-10T00:05:50.492Z,99.90
2019-05-10T00:08:37.416Z,99.90
2019-05-10T00:11:32.394Z,99.90
2019-05-10T00:14:14.024Z,99.90
2019-05-10T00:16:43.493Z,99.90
2019-05-10T00:19:12.923Z,99.90
2019-05-10T00:21:42.387Z,99.90
2019-05-10T00:24:11.867Z,99.90
2019-05-10T00:26:41.331Z,99.90
2019-05-10T00:29:10.761Z,99.90
2019-05-10T00:31:40.190Z,99.90
2019-05-10T00:34:09.640Z,99.90
2019-05-10T00:36:39.103Z,99.90
2019-05-10T00:39:08.520Z,99.90
2019-05-10T00:41:37.936Z,99.90
2019-05-10T00:44:07.404Z,99.90
2019-05-10T00:46:36.824Z,99.90
2019-05-10T00:49:06.777Z,99.90
2019-05-10T00:51:36.361Z,99.90
2019-05-10T00:54:05.809Z,99.90
2019-05-10T00:56:35.237Z,99.90
2019-05-10T00:59:04.710Z,99.90
2019-05-10T01:01:34.117Z,99.90
2019-05-10T01:04:03.560Z,99.90
2019-05-10T01:06:32.958Z,99.90
2019-05-10T01:09:02.455Z,99.90
2019-05-10T01:11:31.911Z,99.90
2019-05-10T01:14:01.366Z,99.90
2019-05-10T01:16:30.797Z,99.90
2019-05-10T01:19:00.253Z,99.90
2019-05-10T01:21:29.696Z,99.90
2019-05-10T01:23:59.143Z,99.90
2019-05-10T01:26:28.567Z,99.90
2019-05-10T01:28:58.282Z,99.90
2019-05-10T01:31:27.744Z,99.90
2019-05-10T01:33:57.164Z,99.90
2019-05-10T01:36:26.581Z,99.90
2019-05-10T01:38:56.037Z,99.90
2019-05-10T01:41:25.557Z,99.90
2019-05-10T01:43:54.996Z,99.90
2019-05-10T01:46:24.482Z,99.90
2019-05-10T01:48:53.960Z,99.90
2019-05-10T01:51:23.457Z,99.90
2019-05-10T01:53:52.900Z,99.90
2019-05-10T01:56:22.345Z,99.90
2019-05-10T01:58:51.764Z,99.90
2019-05-10T02:01:21.247Z,99.90
2019-05-10T02:03:51.082Z,99.90
2019-05-10T02:06:20.494Z,99.90
2019-05-10T02:08:49.916Z,99.90
2019-05-10T02:11:19.362Z,99.90
2019-05-10T02:13:48.825Z,99.90
2019-05-10T02:16:18.258Z,99.90
2019-05-10T02:18:47.697Z,99.90
2019-05-10T02:21:17.131Z,99.90
2019-05-10T02:23:46.702Z,99.90
2019-05-10T02:26:16.142Z,99.90
2019-05-10T02:28:45.597Z,99.90
2019-05-10T02:31:15.135Z,99.90
2019-05-10T02:33:44.622Z,99.90
2019-05-10T02:36:14.185Z,99.90
2019-05-10T02:38:43.610Z,99.90
2019-05-10T02:41:13.079Z,99.90
2019-05-10T02:43:42.529Z,99.90
2019-05-10T02:46:11.950Z,99.90
2019-05-10T02:48:41.407Z,99.90
2019-05-10T02:51:13.559Z,99.90
2019-05-10T02:53:43.030Z,99.90
2019-05-10T02:56:29.680Z,99.90
2019-05-10T02:58:48.237Z,99.90
2019-05-10T03:01:20.671Z,99.90
2019-05-10T03:03:53.314Z,99.90
2019-05-10T03:06:24.907Z,99.90
2019-05-10T03:08:55.291Z,99.90
2019-05-10T03:11:26.152Z,99.90
2019-05-10T03:13:57.053Z,99.90
2019-05-10T03:16:26.455Z,99.90
2019-05-10T03:18:56.576Z,99.90
2019-05-10T03:21:28.705Z,99.90
2019-05-10T03:23:58.115Z,99.90
2019-05-10T03:26:27.538Z,99.90
2019-05-10T03:28:56.963Z,99.90
2019-05-10T03:31:26.558Z,99.90
2019-05-10T03:33:57.743Z,99.90
2019-05-10T03:36:27.328Z,99.90
2019-05-10T03:38:57.108Z,99.90
2019-05-10T03:41:26.524Z,99.90
2019-05-10T03:43:55.945Z,99.90
2019-05-10T03:46:25.348Z,99.90
2019-05-10T03:48:54.778Z,99.90
2019-05-10T03:51:24.176Z,99.90
2019-05-10T03:53:53.612Z,99.90
2019-05-10T03:56:23.486Z,99.90
2019-05-10T03:58:52.891Z,99.90
2019-05-10T04:01:22.316Z,99.90
2019-05-10T04:03:51.760Z,99.90
2019-05-10T04:06:21.186Z,99.90
2019-05-10T04:08:50.621Z,99.90
2019-05-10T04:11:20.054Z,99.90
2019-05-10T04:13:49.469Z,99.90
2019-05-10T04:16:18.873Z,99.90
2019-05-10T04:18:48.316Z,99.90
2019-05-10T04:21:17.737Z,99.90
2019-05-10T04:23:47.174Z,99.90
2019-05-10T04:26:16.606Z,99.90
2019-05-10T04:28:46.017Z,99.90
2019-05-10T04:31:15.615Z,99.90
2019-05-10T04:33:45.011Z,99.90
2019-05-10T04:36:14.434Z,99.90
2019-05-10T04:38:43.831Z,99.90
2019-05-10T04:41:13.281Z,99.90
2019-05-10T04:43:42.733Z,99.90
2019-05-10T04:46:12.591Z,99.90
2019-05-10T04:48:42.059Z,99.90
2019-05-10T04:51:11.509Z,99.90
2019-05-10T04:53:40.962Z,99.90
2019-05-10T04:56:10.377Z,99.90
2019-05-10T04:58:39.825Z,99.90
2019-05-10T05:01:09.279Z,99.90
2019-05-10T05:03:38.669Z,99.90
2019-05-10T05:06:08.098Z,99.90
2019-05-10T05:08:37.499Z,99.90
2019-05-10T05:11:06.918Z,99.90
2019-05-10T05:13:36.370Z,99.90
2019-05-10T05:16:05.918Z,99.90
2019-05-10T05:18:35.316Z,99.90
2019-05-10T05:21:04.756Z,99.90
2019-05-10T05:23:34.223Z,99.90
2019-05-10T05:26:03.725Z,99.90
2019-05-10T05:28:33.162Z,99.90
2019-05-10T05:31:02.745Z,99.90
2019-05-10T05:33:32.189Z,99.90
2019-05-10T05:36:02.409Z,99.90
2019-05-10T05:38:32.081Z,99.90
2019-05-10T05:41:01.540Z,99.90
2019-05-10T05:43:30.962Z,99.90
2019-05-10T05:46:00.477Z,99.90
2019-05-10T05:48:39.980Z,99.90
2019-05-10T05:51:01.516Z,99.90
2019-05-10T05:53:35.714Z,99.90
2019-05-10T05:56:03.608Z,99.90
2019-05-10T05:58:38.060Z,99.90
2019-05-10T06:01:04.517Z,99.90
2019-05-10T06:03:34.019Z,99.90
2019-05-10T06:06:15.262Z,99.90
2019-05-10T06:08:34.598Z,99.90
2019-05-10T06:11:04.316Z,99.90
2019-05-10T06:13:33.785Z,99.90
2019-05-10T06:16:06.399Z,99.90
2019-05-10T06:18:34.631Z,99.90
2019-05-10T06:21:04.056Z,99.90
2019-05-10T06:23:35.092Z,99.90
2019-05-10T06:26:05.915Z,99.90
2019-05-10T06:28:57.719Z,99.90
2019-05-10T06:31:06.772Z,99.90
2019-05-10T06:33:39.624Z,99.90
2019-05-10T06:36:07.326Z,99.90
2019-05-10T06:38:36.814Z,99.90
2019-05-10T06:41:10.023Z,99.90
2019-05-10T06:43:38.530Z,99.90
2019-05-10T06:46:08.419Z,99.90
2019-05-10T06:48:37.829Z,99.90
2019-05-10T06:51:09.753Z,99.90
2019-05-10T06:53:42.234Z,99.90
2019-05-10T06:56:09.502Z,99.90
2019-05-10T06:58:39.277Z,99.90
2019-05-10T07:01:08.786Z,99.90
2019-05-10T07:03:38.337Z,99.90
2019-05-10T07:06:07.830Z,99.90
2019-05-10T07:08:44.358Z,99.90
2019-05-10T07:11:08.449Z,99.90
2019-05-10T07:13:40.324Z,99.90
2019-05-10T07:16:09.339Z,99.90
2019-05-10T07:18:38.769Z,99.90
2019-05-10T07:21:08.775Z,99.90
2019-05-10T07:23:39.021Z,99.90
2019-05-10T07:26:09.888Z,99.90
2019-05-10T07:28:39.914Z,99.90
2019-05-10T07:31:09.440Z,99.90
2019-05-10T07:33:40.245Z,99.90
2019-05-10T07:36:14.654Z,99.90
2019-05-10T07:38:41.204Z,99.90
2019-05-10T07:41:10.649Z,99.90
2019-05-10T07:43:41.307Z,99.90
2019-05-10T07:46:10.739Z,99.90
2019-05-10T07:48:41.332Z,99.90
2019-05-10T07:51:11.239Z,99.90
2019-05-10T07:53:40.657Z,99.90
2019-05-10T07:56:10.111Z,99.90
2019-05-10T07:58:43.270Z,99.90
2019-05-10T08:01:11.475Z,99.90
2019-05-10T08:03:47.950Z,99.90
2019-05-10T08:06:15.212Z,99.90
2019-05-10T08:08:44.131Z,99.90
2019-05-10T08:11:13.738Z,99.90
2019-05-10T08:13:43.950Z,99.90
2019-05-10T08:16:19.539Z,99.90
2019-05-10T08:18:44.554Z,99.90
2019-05-10T08:21:21.730Z,99.90
2019-05-10T08:23:45.101Z,99.90
2019-05-10T08:26:20.329Z,99.90
2019-05-10T08:28:46.002Z,99.90
2019-05-10T08:31:15.819Z,99.90
2019-05-10T08:33:56.246Z,99.90
2019-05-10T08:36:16.568Z,99.90
2019-05-10T08:38:58.450Z,99.90
2019-05-10T08:41:18.444Z,99.90
2019-05-10T08:43:47.976Z,99.90
2019-05-10T08:46:19.497Z,99.90
2019-05-10T08:48:51.391Z,99.90
2019-05-10T08:51:19.657Z,99.90
2019-05-10T08:53:53.422Z,99.90
2019-05-10T08:56:21.661Z,99.90
2019-05-10T08:58:53.740Z,99.90
2019-05-10T09:01:29.957Z,99.90
2019-05-10T09:03:59.341Z,99.90
2019-05-10T09:06:24.650Z,99.90
2019-05-10T09:09:01.831Z,99.90
2019-05-10T09:11:25.488Z,99.90
2019-05-10T09:13:57.777Z,99.90
2019-05-10T09:16:29.117Z,99.90
2019-05-10T09:18:57.218Z,99.90
2019-05-10T09:21:26.691Z,99.90
2019-05-10T09:24:01.568Z,99.90
2019-05-10T09:26:27.905Z,99.90
2019-05-10T09:28:57.918Z,99.90
2019-05-10T09:31:27.617Z,99.90
2019-05-10T09:33:57.207Z,99.90
2019-05-10T09:36:31.182Z,99.90
2019-05-10T09:38:58.164Z,99.90
2019-05-10T09:41:35.992Z,99.90
2019-05-10T09:43:59.626Z,99.90
2019-05-10T09:46:29.279Z,99.90
2019-05-10T09:49:13.740Z,99.90
2019-05-10T09:51:33.341Z,99.90
2019-05-10T09:54:02.740Z,99.90
2019-05-10T09:56:39.553Z,99.90
2019-05-10T09:59:03.365Z,99.90
2019-05-10T10:01:32.774Z,99.90
2019-05-10T10:04:02.433Z,99.90
2019-05-10T10:06:31.834Z,99.90
2019-05-10T10:09:01.641Z,99.90
2019-05-10T10:11:33.426Z,99.90
2019-05-10T10:14:02.941Z,99.90
2019-05-10T10:16:33.050Z,99.90
2019-05-10T10:19:03.458Z,99.90
2019-05-10T10:21:35.583Z,99.90
2019-05-10T10:24:12.632Z,99.90
2019-05-10T10:26:37.933Z,99.90
2019-05-10T10:29:07.713Z,99.90
2019-05-10T10:31:48.292Z,99.90
2019-05-10T10:34:08.538Z,99.90
2019-05-10T10:36:40.186Z,99.90
2019-05-10T10:39:09.655Z,99.90
2019-05-10T10:41:39.059Z,99.90
2019-05-10T10:44:09.129Z,99.90
2019-05-10T10:46:38.938Z,99.90
2019-05-10T10:49:10.487Z,98.00
2019-05-10T10:51:39.988Z,97.60
2019-05-10T10:54:09.523Z,99.90
2019-05-10T10:56:39.333Z,99.90
2019-05-10T10:59:08.742Z,99.90
2019-05-10T11:01:49.132Z,99.90
2019-05-10T11:04:09.860Z,98.60
2019-05-10T11:06:39.382Z,99.90
2019-05-10T11:09:09.218Z,93.70
2019-05-10T11:11:43.927Z,98.10
2019-05-10T11:14:11.093Z,99.60
2019-05-10T11:16:41.288Z,99.90
2019-05-10T11:19:15.301Z,98.40
2019-05-10T11:21:42.303Z,99.90
2019-05-10T11:24:18.045Z,99.90
2019-05-10T11:26:44.797Z,99.90
2019-05-10T11:29:21.994Z,98.10
2019-05-10T11:31:48.534Z,94.00
2019-05-10T11:34:16.281Z,94.10
2019-05-10T11:36:46.310Z,95.70
2019-05-10T11:39:26.009Z,95.00
2019-05-10T11:41:52.846Z,97.30
2019-05-10T11:44:22.083Z,97.70
2019-05-10T11:46:52.294Z,99.30
2019-05-10T11:49:22.066Z,98.50
2019-05-10T11:54:23.055Z,99.50
2019-05-10T11:56:57.804Z,98.20
2019-05-10T11:59:03.904Z,97.00
2019-05-10T11:59:27.344Z,99.90
2019-05-10T12:01:57.871Z,99.90
2019-05-10T12:04:36.235Z,99.90
2019-05-10T12:06:56.901Z,99.90
2019-05-10T12:09:26.350Z,98.50
2019-05-10T12:11:57.000Z,99.90
2019-05-10T12:14:26.570Z,90.10
2019-05-10T12:16:56.487Z,99.90
2019-05-10T12:19:25.983Z,83.20
2019-05-10T12:21:55.987Z,69.50
2019-05-10T12:24:45.157Z,80.30
2019-05-10T12:27:21.996Z,82.60
2019-05-10T12:29:31.526Z,77.10
2019-05-10T12:32:00.094Z,79.30
2019-05-10T12:34:31.125Z,82.00
2019-05-10T12:37:03.788Z,80.70
2019-05-10T12:39:32.460Z,90.30
2019-05-10T12:42:02.574Z,82.20
2019-05-10T12:44:33.521Z,81.90
2019-05-10T12:47:03.475Z,76.80
2019-05-10T12:49:36.157Z,79.80
2019-05-10T12:52:03.980Z,79.60
2019-05-10T12:54:33.438Z,87.80
2019-05-10T12:57:03.259Z,82.90
2019-05-10T12:59:34.883Z,63.30
2019-05-10T13:02:04.522Z,62.30
2019-05-10T13:04:40.365Z,64.20
2019-05-10T13:07:06.266Z,61.10
2019-05-10T13:09:40.340Z,63.50
2019-05-10T13:12:06.937Z,63.50
2019-05-10T13:14:40.348Z,65.40
2019-05-10T13:17:09.776Z,63.30
2019-05-10T13:19:38.576Z,63.30
2019-05-10T13:22:07.983Z,65.70
2019-05-10T13:24:37.418Z,70.40
2019-05-10T13:27:06.874Z,66.80
2019-05-10T13:29:40.586Z,77.20
2019-05-10T13:32:07.758Z,75.70
2019-05-10T13:34:37.221Z,73.90
2019-05-10T13:37:06.658Z,68.60
2019-05-10T13:39:36.102Z,70.10
2019-05-10T13:42:09.345Z,76.20
2019-05-10T13:44:37.051Z,79.80
2019-05-10T13:47:07.709Z,74.40
2019-05-10T13:49:37.147Z,64.60
2019-05-10T13:52:06.649Z,65.30
2019-05-10T13:54:37.884Z,59.70
2019-05-10T13:57:07.182Z,58.60
2019-05-10T13:59:36.734Z,56.30
2019-05-10T14:02:06.188Z,55.60
2019-05-10T14:04:38.655Z,53.00
2019-05-10T14:07:06.728Z,55.50
2019-05-10T14:09:36.461Z,51.50
2019-05-10T14:12:06.278Z,52.90
2019-05-10T14:14:35.689Z,52.80
2019-05-10T14:17:05.200Z,54.20
2019-05-10T14:19:35.981Z,52.00
2019-05-10T14:22:05.968Z,56.60
2019-05-10T14:24:35.395Z,53.40
2019-05-10T14:27:04.826Z,50.60
2019-05-10T14:29:36.719Z,51.30
2019-05-10T14:32:05.415Z,54.00
2019-05-10T14:34:37.892Z,50.80
2019-05-10T14:37:05.953Z,51.90
2019-05-10T14:39:35.374Z,52.80
2019-05-10T14:42:04.848Z,52.70
2019-05-10T14:44:38.255Z,51.80
2019-05-10T14:47:05.938Z,51.20
2019-05-10T14:49:35.354Z,53.60
2019-05-10T14:52:04.834Z,54.80
2019-05-10T14:54:43.115Z,54.10
2019-05-10T14:57:05.701Z,53.80
2019-05-10T14:59:35.145Z,55.10
2019-05-10T15:02:04.704Z,51.90
2019-05-10T15:04:49.438Z,51.80
2019-05-10T15:07:08.755Z,52.80
2019-05-10T15:09:36.830Z,54.10
2019-05-10T15:12:10.098Z,53.90
2019-05-10T15:14:37.371Z,55.50
2019-05-10T15:17:06.805Z,57.50
2019-05-10T15:19:36.310Z,56.30
2019-05-10T15:22:05.768Z,56.30
2019-05-10T15:24:35.172Z,60.10
2019-05-10T15:27:04.589Z,58.10
2019-05-10T15:29:34.050Z,54.30
2019-05-10T15:32:03.453Z,57.00
2019-05-10T15:34:32.894Z,54.40
2019-05-10T15:37:08.791Z,56.00
2019-05-10T15:39:33.435Z,58.60
2019-05-10T15:42:03.166Z,61.50
2019-05-10T15:44:33.842Z,62.30
2019-05-10T15:47:03.530Z,62.00
2019-05-10T15:49:33.013Z,58.70
2019-05-10T15:52:16.885Z,57.70
2019-05-10T15:54:38.076Z,57.80
2019-05-10T15:57:05.009Z,61.90
2019-05-10T15:59:34.448Z,64.70
2019-05-10T16:02:03.998Z,59.10
2019-05-10T16:04:33.459Z,61.60
2019-05-10T16:07:03.154Z,58.80
2019-05-10T16:09:32.994Z,59.30
2019-05-10T16:12:08.300Z,60.50
2019-05-10T16:14:39.156Z,60.70
2019-05-10T16:17:04.669Z,60.90
2019-05-10T16:19:34.528Z,63.30
2019-05-10T16:22:03.953Z,62.10
2019-05-10T16:24:33.746Z,61.40
2019-05-10T16:27:05.556Z,68.70
2019-05-10T16:29:39.816Z,67.00
2019-05-10T16:32:06.346Z,66.20
2019-05-10T16:34:36.086Z,65.40
2019-05-10T16:37:05.502Z,66.90
2019-05-10T16:39:34.961Z,69.30
2019-05-10T16:42:04.490Z,67.70
2019-05-10T16:44:33.897Z,74.50
2019-05-10T16:47:03.372Z,68.10
2019-05-10T16:49:32.855Z,67.60
2019-05-10T16:52:02.294Z,71.30
2019-05-10T16:54:31.762Z,71.20
2019-05-10T16:57:01.729Z,70.60
2019-05-10T16:59:31.488Z,70.50
2019-05-10T17:02:04.679Z,73.20
2019-05-10T17:04:37.872Z,73.30
2019-05-10T17:07:03.601Z,78.10
2019-05-10T17:09:33.047Z,78.50
2019-05-10T17:12:03.538Z,79.00
2019-05-10T17:14:32.986Z,76.30
2019-05-10T17:17:02.441Z,78.90
2019-05-10T17:19:34.094Z,75.80
2019-05-10T17:22:02.972Z,80.80
2019-05-10T17:24:32.431Z,84.10
2019-05-10T17:27:02.178Z,83.30
2019-05-10T17:29:31.643Z,82.30
2019-05-10T17:32:01.059Z,83.80
2019-05-10T17:34:30.541Z,84.10
2019-05-10T17:36:59.999Z,83.90
2019-05-10T17:39:32.063Z,86.60
2019-05-10T17:42:03.153Z,89.00
2019-05-10T17:44:32.478Z,92.70
2019-05-10T17:47:01.902Z,97.20
2019-05-10T17:49:31.379Z,98.40
2019-05-10T17:52:01.126Z,99.80
2019-05-10T17:54:33.774Z,99.90
2019-05-10T17:57:01.689Z,99.90
2019-05-10T17:59:31.185Z,99.90
2019-05-10T18:02:00.702Z,99.90
2019-05-10T18:04:30.115Z,99.90
2019-05-10T18:06:59.566Z,99.90
2019-05-10T18:09:29.103Z,99.90
2019-05-10T18:11:58.525Z,99.90
2019-05-10T18:14:29.683Z,99.90
2019-05-10T18:16:59.225Z,99.90
2019-05-10T18:19:28.801Z,99.90
2019-05-10T18:22:00.775Z,99.90
2019-05-10T18:24:30.174Z,99.90
2019-05-10T18:27:04.926Z,99.90
2019-05-10T18:29:34.510Z,99.90
2019-05-10T18:32:04.144Z,99.90
2019-05-10T18:34:37.491Z,99.90
2019-05-10T18:37:06.922Z,99.90
2019-05-10T18:39:37.150Z,99.90
2019-05-10T18:42:07.476Z,99.90
2019-05-10T18:44:40.262Z,99.90
2019-05-10T18:47:12.241Z,99.90
2019-05-10T18:49:41.808Z,99.90
2019-05-10T18:52:11.682Z,99.90
2019-05-10T18:54:41.159Z,99.90
2019-05-10T18:57:19.069Z,99.90
2019-05-10T18:59:47.121Z,99.90
2019-05-10T19:02:19.667Z,99.90
2019-05-10T19:04:52.027Z,99.90
2019-05-10T19:07:20.036Z,99.90
2019-05-10T19:09:49.479Z,99.90
2019-05-10T19:12:21.995Z,99.90
2019-05-10T19:14:50.026Z,99.90
2019-05-10T19:17:20.449Z,99.90
2019-05-10T19:19:51.152Z,99.90
2019-05-10T19:22:23.128Z,99.90
2019-05-10T19:24:56.667Z,99.90
2019-05-10T19:27:25.174Z,99.90
2019-05-10T19:29:54.820Z,99.90
2019-05-10T19:32:24.605Z,99.90
2019-05-10T19:34:57.511Z,99.90
2019-05-10T19:37:30.163Z,99.90
2019-05-10T19:39:57.673Z,99.90
2019-05-10T19:42:27.162Z,99.90
2019-05-10T19:44:57.042Z,99.90
2019-05-10T19:47:27.381Z,99.90
2019-05-10T19:50:03.345Z,99.90
2019-05-10T19:52:32.841Z,99.90
2019-05-10T19:55:03.442Z,99.90
2019-05-10T19:57:33.297Z,99.90
2019-05-10T20:00:02.721Z,99.90
2019-05-10T20:02:32.707Z,99.90
2019-05-10T20:05:02.663Z,99.90
2019-05-10T20:07:45.509Z,99.90
2019-05-10T20:10:07.550Z,99.90
2019-05-10T20:12:36.103Z,99.90
2019-05-10T20:15:05.578Z,99.90
2019-05-10T20:17:36.802Z,99.90
2019-05-10T20:20:07.453Z,99.90
2019-05-10T20:22:36.941Z,99.90
2019-05-10T20:25:07.356Z,99.90
2019-05-10T20:27:36.805Z,99.90
2019-05-10T20:30:07.094Z,99.90
2019-05-10T20:32:36.548Z,99.90
2019-05-10T20:35:06.605Z,99.90
2019-05-10T20:37:36.415Z,99.90
2019-05-10T20:40:06.339Z,99.90
2019-05-10T20:42:35.785Z,99.90
2019-05-10T20:45:08.067Z,99.90
2019-05-10T20:47:37.201Z,99.90
2019-05-10T20:50:07.271Z,99.90
2019-05-10T20:52:36.990Z,99.90
2019-05-10T20:55:07.014Z,99.90
2019-05-10T20:57:36.447Z,99.90
2019-05-10T21:00:06.641Z,99.90
2019-05-10T21:02:36.090Z,99.90
2019-05-10T21:05:05.806Z,99.90
2019-05-10T21:07:35.516Z,99.90
2019-05-10T21:10:05.446Z,99.90
2019-05-10T21:12:35.265Z,99.90
2019-05-10T21:15:04.818Z,99.90
2019-05-10T21:17:34.264Z,99.90
2019-05-10T21:20:03.846Z,99.90
2019-05-10T21:22:33.298Z,99.90
2019-05-10T21:25:02.705Z,99.90
2019-05-10T21:27:32.144Z,99.90
2019-05-10T21:30:02.261Z,99.90
2019-05-10T21:32:31.982Z,99.90
2019-05-10T21:35:01.410Z,99.90
2019-05-10T21:37:30.842Z,99.90
2019-05-10T21:40:00.365Z,99.90
2019-05-10T21:42:29.829Z,99.90
2019-05-10T21:44:59.231Z,99.90
2019-05-10T21:47:28.717Z,99.90
2019-05-10T21:49:58.132Z,99.90
2019-05-10T21:52:27.586Z,99.90
2019-05-10T21:54:57.326Z,99.90
2019-05-10T21:57:26.785Z,99.90
2019-05-10T21:59:56.242Z,99.90
2019-05-10T22:02:25.646Z,99.90
2019-05-10T22:04:55.079Z,99.90
2019-05-10T22:07:24.511Z,99.90
2019-05-10T22:09:53.987Z,99.90
2019-05-10T22:12:23.454Z,99.90
2019-05-10T22:14:52.873Z,99.90
2019-05-10T22:17:22.290Z,99.90
2019-05-10T22:19:51.703Z,99.90
2019-05-10T22:22:21.152Z,99.90
2019-05-10T22:24:50.596Z,99.90
2019-05-10T22:27:20.451Z,99.90
2019-05-10T22:29:49.998Z,99.90
2019-05-10T22:32:19.441Z,99.90
2019-05-10T22:34:48.880Z,99.90
2019-05-10T22:37:18.337Z,99.90
2019-05-10T22:39:47.762Z,99.90
2019-05-10T22:42:17.194Z,99.90
2019-05-10T22:44:46.987Z,99.90
2019-05-10T22:47:16.406Z,99.90
2019-05-10T22:49:45.810Z,99.90
2019-05-10T22:52:15.218Z,99.90
2019-05-10T22:54:44.637Z,99.90
2019-05-10T22:57:14.072Z,99.90
2019-05-10T22:59:43.487Z,99.90
2019-05-10T23:02:12.909Z,99.90
2019-05-10T23:04:42.383Z,99.90
2019-05-10T23:07:13.657Z,99.90
2019-05-10T23:09:43.086Z,99.90
2019-05-10T23:12:12.517Z,99.90
2019-05-10T23:14:41.918Z,99.90
2019-05-10T23:17:11.400Z,99.90
2019-05-10T23:19:40.822Z,99.90
2019-05-10T23:22:10.226Z,99.90
2019-05-10T23:24:39.991Z,99.90
2019-05-10T23:27:09.417Z,99.90
2019-05-10T23:29:38.878Z,99.90
2019-05-10T23:32:08.286Z,99.90
2019-05-10T23:34:37.731Z,99.90
2019-05-10T23:37:07.119Z,99.90
2019-05-10T23:39:40.631Z,99.90
2019-05-10T23:42:07.694Z,99.90
2019-05-10T23:44:37.153Z,99.90
2019-05-10T23:47:06.591Z,99.90
2019-05-10T23:49:36.032Z,99.90
2019-05-10T23:52:05.659Z,99.90
2019-05-10T23:54:35.326Z,99.90
2019-05-10T23:57:04.756Z,99.90
2019-05-10T23:59:34.165Z,99.90
